Valley Peak, Santa Cruz Island Reserve, California Weather observations

Data are for 10 minute period ending at time listed.
 Day   Time   Solar   Ave.   Ave.  Ave.  Vector  Max.   Baro.   Total    
  of    of     Rad.   Air    Rel.  Wind   Wind   Wind  Press.  Precip.   
Year   Day            Temp.  Hum.  Speed  Dir.   Gust                    
2014   (PST)  Kw/m2    F      %     mph   deg.    mph    mb.     in.     
-------------------------------------------------------------------------
 210    7:10   0.32   69.4    57    3.7   194     4.2   968.0    0.00 
 210    7:20   0.36   69.1    62    3.6   176     4.8   968.2    0.00 
 210    7:30   0.40   70.2    56    3.6   148     7.9   968.3    0.00 
 210    7:40   0.42   72.3    52    4.6   135     8.3   968.3    0.00 
 210    7:50   0.47   73.0    55    4.4   158     8.2   968.2    0.00 
 210    8:00   0.49   72.3    53    4.8   161     9.3   968.1    0.00 
 210    8:10   0.52   73.4    52    5.8   150     8.8   968.1    0.00 
 210    8:20   0.55   73.5    59    5.1   151     7.6   968.1    0.00 
 210    8:30   0.58   73.2    58    3.7   150     6.8   968.1    0.00 
 210    8:40   0.61   73.6    60    3.1   147     5.9   968.2    0.00 
 210    8:50   0.64   75.3    59    3.4   100     6.7   968.2    0.00 
 210    9:00   0.67   77.1    58    3.9   119     8.8   968.3    0.00 
 210    9:10   0.69   74.8    64    5.0   135     9.0   968.3    0.00 
 210    9:20   0.72   74.4    64    4.7   125     8.5   968.2    0.00 
 210    9:30   0.74   75.6    61    2.8    44     6.1   968.1    0.00 
 210    9:40   0.77   78.0    57    4.0    57     7.4   968.1    0.00 
 210    9:50   0.79   77.5    57    3.8    62     6.7   968.2    0.00 
 210   10:00   0.81   75.4    61    6.4    34    10.0   968.1    0.00 
 210   10:10   0.83   73.7    64    5.6    37     8.6   968.1    0.00 
 210   10:20   0.85   73.9    63    7.7    27    11.6   967.9    0.00 
 210   10:30   0.86   72.7    64   11.0    31    15.2   967.8    0.00 
 210   10:40   0.86   71.6    66   12.1    33    15.5   967.7    0.00 
 210   10:50   0.80   71.3    67   10.5    29    15.1   967.6    0.00 
 210   11:00   0.87   71.8    64    5.7    32    10.6   967.7    0.00 
 210   11:10   0.85   74.1    60    2.5    33     4.8   967.8    0.00 
 210   11:20   0.83   77.2    54    3.1    37     8.1   967.7    0.00 
 210   11:30   0.82   77.0    56    4.7    37     8.0   967.7    0.00 
 210   11:40   0.87   76.2    58    3.2    30     6.9   967.6    0.00 
 210   11:50   0.86   78.4    54    3.3    35     6.3   967.6    0.00 
 210   12:00   0.91   77.5    56    4.2    22     7.5   967.5    0.00 
 210   12:10   1.00   77.5    57    4.0    20     6.4   967.4    0.00 
 210   12:20   0.78   78.5    55    4.5    30     7.7   967.4    0.00 
 210   12:30   0.91   80.8    52    3.9    51     6.4   967.4    0.00 
 210   12:40   0.64   82.1    50    4.1    46     5.9   967.4    0.00 
 210   12:50   0.70   78.3    56    5.3    39     8.2   967.4    0.00 
 210   13:00   0.85   78.7    55    4.6    41     6.8   967.4    0.00 
 210   13:10   0.86   79.6    53    4.7    37     7.3   967.4    0.00 
 210   13:20   1.10   79.4    53    5.4    22     9.1   967.3    0.00 
 210   13:30   1.08   79.1    54    5.4    18     9.1   967.2    0.00 
 210   13:40   0.61   77.4    57    8.4    24    13.2   967.0    0.00 
 210   13:50   0.62   73.9    60   10.0    12    15.3   966.8    0.00 
 210   14:00   0.66   75.0    56    8.5   352    14.3   966.6    0.00 
 210   14:10   0.63   74.8    58    7.7    16    10.6   966.5    0.00 
 210   14:20   0.47   73.9    59    8.6    22    11.8   966.5    0.00 
 210   14:30   0.47   73.0    59    7.9    10    12.6   966.3    0.00 
 210   14:40   0.61   75.1    53    7.1    11    14.0   966.2    0.00 
 210   14:50   0.56   75.7    52    7.8    19    13.8   966.1    0.00 
 210   15:00   0.34   76.6    50    3.5     1     7.0   966.2    0.00 
 210   15:10   0.25   78.5    51    4.6   201     7.3   966.3    0.00 
 210   15:20   0.21   76.4    58    6.7   180     8.2   966.2    0.00 
 210   15:30   0.20   73.8    64    6.6   188     8.1   966.0    0.00 
 210   15:40   0.22   75.2    59    3.8   196     5.7   965.8    0.00 
 210   15:50   0.24   77.5    52    4.4   262     8.7   965.7    0.00 
 210   16:00   0.25   78.4    45    7.2   283    12.1   965.6    0.00 
 210   16:10   0.24   80.2    38    4.2   292     8.3   965.6    0.00 
 210   16:20   0.21   81.4    34    3.5   260     6.4   965.6    0.00 
 210   16:30   0.18   81.5    28    3.9   252     7.9   965.7    0.00 
 210   16:40   0.17   82.4    24    4.3   271     8.0   965.7    0.00 
 210   16:50   0.17   82.7    32    1.6   341     4.0   965.6    0.00 
 210   17:00   0.17   82.7    28    2.4   273     4.4   965.5    0.00 
 210   17:10   0.16   84.4    25    3.3   299     4.9   965.5    0.00 
 210   17:20   0.14   84.6    26    3.6   241     6.4   965.5    0.00 
 210   17:30   0.14   84.0    26    4.2   248     6.1   965.5    0.00 
 210   17:40   0.12   84.0    24    4.3   274     6.9   965.5    0.00 
 210   17:50   0.09   83.9    25    5.7   341    10.2   965.4    0.00 
 210   18:00   0.08   83.2    26    7.4   330    14.1   965.3    0.00 
 210   18:10   0.06   83.4    27    8.4   325    14.2   965.3    0.00 
 210   18:20   0.05   83.1    28    8.2   330    15.4   965.2    0.00 
 210   18:30   0.03   82.5    29    8.2   328    12.0   965.2    0.00 
 210   18:40   0.02   81.3    31    6.5   341    10.8   965.2    0.00 
 210   18:50   0.01   80.2    32    7.1   349    13.1   965.1    0.00 
 210   19:00   0.00   80.2    32    7.7   359    12.3   965.2    0.00 
 210   19:10   0.00   80.1    32    7.1   339    13.3   965.2    0.00 
 210   19:20   0.00   80.3    32    7.8   336    16.1   965.2    0.00 
 210   19:30   0.00   80.2    32    7.0   344    13.1   965.2    0.00 
 210   19:40   0.00   80.4    32   10.7   337    18.7   965.1    0.00 
 210   19:50   0.00   80.9    31    9.4   340    19.6   965.2    0.00 
 210   20:00   0.00   81.0    31   10.4   342    18.8   965.3    0.00 
 210   20:10   0.00   81.1    30    9.3   347    18.6   965.3    0.00 
 210   20:20   0.00   80.9    30    9.0   347    16.8   965.5    0.00 
 210   20:30   0.00   81.4    30    7.7   341    13.2   965.5    0.00 
 210   20:40   0.00   81.3    30    8.2   342    13.2   965.5    0.00 
 210   20:50   0.00   81.3    30    7.9   342    14.1   965.5    0.00 
 210   21:00   0.00   81.4    30    6.8   339    11.0   965.6    0.00 
 210   21:10   0.00   81.4    30    7.2   329    14.1   965.6    0.00 
 210   21:20   0.00   81.6    30    5.9   325     9.4   965.5    0.00 
 210   21:30   0.00   81.8    30    8.0   330    13.3   965.5    0.00 
 210   21:40   0.00   81.6    30    5.6   328     9.8   965.4    0.00 
 210   21:50   0.00   80.7    31    5.9   341    11.2   965.4    0.00 
 210   22:00   0.00   79.9    32    5.1   340     9.0   965.4    0.00 
 210   22:10   0.00   80.2    32    4.2   291     5.8   965.3    0.00 
 210   22:20   0.00   79.6    35    3.5   242     7.2   965.2    0.00 
 210   22:30   0.00   79.3    34    1.3   307     3.1   965.2    0.00 
 210   22:40   0.00   79.2    33    2.9   316     6.5   965.1    0.00 
 210   22:50   0.00   78.5    34    3.4    37     4.8   965.1    0.00 
 210   23:00   0.00   73.8    49    2.7   162     5.0   965.1    0.00 
 210   23:10   0.00   73.0    42    2.2    13     4.2   964.9    0.00 
 210   23:20   0.00   74.8    39    2.5   183     4.7   964.9    0.00 
 210   23:30   0.00   75.0    38    2.0   290     5.7   964.8    0.00 
 210   23:40   0.00   76.1    37    4.8   355     6.9   964.8    0.00 
 210   23:50   0.00   74.2    39    5.4   359     9.5   964.7    0.00 
 211    0:00   0.00   74.8    39    7.0   326    10.5   964.8    0.00 
 211    0:10   0.00   75.0    39    5.1   337     7.2   964.9    0.00 
 211    0:20   0.00   74.1    41    6.5   354     8.6   964.8    0.00 
 211    0:30   0.00   73.3    42    8.4   352    11.0   964.8    0.00 
 211    0:40   0.00   73.0    43    7.6   348    10.3   964.7    0.00 
 211    0:50   0.00   71.3    47    6.9   348     9.1   964.7    0.00 
 211    1:00   0.00   70.7    49    8.0   350     9.8   964.5    0.00 
 211    1:10   0.00   71.0    47    7.6   340    10.1   964.4    0.00 
 211    1:20   0.00   72.5    43    6.9   335    11.4   964.4    0.00 
 211    1:30   0.00   71.9    46    6.5   350    10.5   964.4    0.00 
 211    1:40   0.00   69.7    52    6.1    20     9.6   964.3    0.00 
 211    1:50   0.00   68.8    54    4.0    31     6.0   964.3    0.00 
 211    2:00   0.00   67.9    63    4.0    45     7.1   964.4    0.00 
 211    2:10   0.00   66.9    71    6.1   129     8.6   964.5    0.00 
 211    2:20   0.00   64.0    80    5.3   145     8.3   964.5    0.00 
 211    2:30   0.00   63.7    81    4.9   154     7.4   964.4    0.00 
 211    2:40   0.00   65.5    70    5.3   195     6.9   964.5    0.00 
 211    2:50   0.00   64.3    80    7.6   166     9.7   964.7    0.00 
 211    3:00   0.00   63.3    85    8.1   158     9.2   964.7    0.00 
 211    3:10   0.00   63.3    84    5.4   165     8.2   964.6    0.00 
 211    3:20   0.00   64.4    76    2.8   169     7.5   964.6    0.00 
 211    3:30   0.00   64.9    78    3.5   148     6.6   964.6    0.00 
 211    3:40   0.00   63.4    87    6.4   132    10.6   964.6    0.00 
 211    3:50   0.00   62.5    95    9.8   136    12.7   964.8    0.00 
 211    4:00   0.00   62.0    97   12.1   140    14.2   964.9    0.00 
 211    4:10   0.00   61.8    98    7.4   146    12.9   964.8    0.00 
 211    4:20   0.00   64.2    83    3.1   265     5.8   964.8    0.00 
 211    4:30   0.00   63.9    90    2.2    94     4.9   964.9    0.00 
 211    4:40   0.00   63.1    90    3.0    23     5.3   964.8    0.00 
 211    4:50   0.00   66.6    72    6.5   334     8.5   964.8    0.00 
 211    5:00   0.00   68.6    63    9.1   327    11.0   964.6    0.00 
 211    5:10   0.00   67.0    77    8.5   147    13.4   964.8    0.00 
 211    5:20   0.00   65.6    78    5.5   254    11.2   964.8    0.00 
 211    5:30   0.01   66.7    74    2.5   248     5.5   965.0    0.00 
 211    5:40   0.03   70.7    58    4.0   346     5.6   965.0    0.00 
 211    5:50   0.05   68.5    72    6.2    94    11.5   965.2    0.00 
 211    6:00   0.07   64.3    91    9.4   128    12.4   965.2    0.00 
 211    6:10   0.16   63.6    92    4.3    86     9.3   965.0    0.00 
 211    6:20   0.21   66.8    78    2.7    35     5.0   965.1    0.00 
 211    6:30   0.14   69.6    70    1.4   346     2.8   965.1    0.00 
 211    6:40   0.17   71.8    57    1.8   292     4.3   965.2    0.00 
 211    6:50   0.23   74.2    57    3.4   300     5.6   965.3    0.00 
 211    7:00   0.21   71.7    62    4.0   158     5.4   965.4    0.00 

Return to Valley Peak, Santa Cruz Island Reserve graphs page.


Western Regional Climate Center,wrcc@dri.edu